createdAt,value
2023-04-16T00:01:44.222Z,82.72
2023-04-16T00:04:47.776Z,82.91
2023-04-16T00:07:52.042Z,82.22
2023-04-16T00:10:55.648Z,82.24
2023-04-16T00:14:00.616Z,82.93
2023-04-16T00:17:04.066Z,83.00
2023-04-16T00:20:10.475Z,81.69
2023-04-16T00:23:14.053Z,81.84
2023-04-16T00:26:17.656Z,82.99
2023-04-16T00:29:23.996Z,83.69
2023-04-16T00:32:27.554Z,84.01
2023-04-16T00:35:31.179Z,84.13
2023-04-16T00:38:35.174Z,83.69
2023-04-16T00:41:40.088Z,82.61
2023-04-16T00:44:45.035Z,82.52
2023-04-16T00:47:48.681Z,82.13
2023-04-16T00:50:52.312Z,83.12
2023-04-16T00:53:56.175Z,82.09
2023-04-16T00:57:00.421Z,82.16
2023-04-16T01:00:06.311Z,82.38
2023-04-16T01:03:10.894Z,82.70
2023-04-16T01:06:15.065Z,82.07
2023-04-16T01:09:18.633Z,81.84
2023-04-16T01:12:22.095Z,81.86
2023-04-16T01:15:27.526Z,82.14
2023-04-16T01:18:31.212Z,82.37
2023-04-16T01:21:36.283Z,83.10
2023-04-16T01:24:40.664Z,83.22
2023-04-16T01:27:50.720Z,84.05
2023-04-16T01:30:54.307Z,84.51
2023-04-16T01:34:08.588Z,85.04
2023-04-16T01:37:13.742Z,85.51
2023-04-16T01:40:17.246Z,86.06
2023-04-16T01:43:20.802Z,86.61
2023-04-16T01:46:29.200Z,86.52
2023-04-16T01:49:33.916Z,86.04
2023-04-16T01:52:38.882Z,84.99
2023-04-16T01:55:42.925Z,84.91
2023-04-16T01:58:47.469Z,85.41
2023-04-16T02:01:53.053Z,85.40
2023-04-16T02:04:58.018Z,84.98
2023-04-16T02:08:02.908Z,84.69
2023-04-16T02:11:07.035Z,83.83
2023-04-16T02:14:11.022Z,83.83
2023-04-16T02:17:15.663Z,83.75
2023-04-16T02:20:20.850Z,84.25
2023-04-16T02:23:31.045Z,84.98
2023-04-16T02:26:35.892Z,84.92
2023-04-16T02:29:44.560Z,84.69
2023-04-16T02:32:51.584Z,84.68
2023-04-16T02:35:56.415Z,85.29
2023-04-16T02:39:01.644Z,85.50
2023-04-16T02:42:05.314Z,86.06
2023-04-16T02:45:10.387Z,85.92
2023-04-16T02:48:13.877Z,85.80
2023-04-16T02:51:17.629Z,85.10
2023-04-16T02:54:22.756Z,86.11
2023-04-16T02:57:26.171Z,86.83
2023-04-16T03:00:29.757Z,86.96
2023-04-16T03:03:33.645Z,86.90
2023-04-16T03:06:37.449Z,87.29
2023-04-16T03:09:42.419Z,87.57
2023-04-16T03:12:45.841Z,88.14
2023-04-16T03:15:52.428Z,88.10
2023-04-16T03:18:56.353Z,87.88
2023-04-16T03:21:59.776Z,88.92
2023-04-16T03:25:05.106Z,89.07
2023-04-16T03:28:08.686Z,88.67
2023-04-16T03:31:12.174Z,88.79
2023-04-16T03:34:16.102Z,88.79
2023-04-16T03:37:19.820Z,88.80
2023-04-16T03:40:25.180Z,88.53
2023-04-16T03:43:29.697Z,88.04
2023-04-16T03:46:33.240Z,87.15
2023-04-16T03:49:36.655Z,86.44
2023-04-16T03:52:40.146Z,86.72
2023-04-16T03:55:45.056Z,86.64
2023-04-16T03:58:48.653Z,85.97
2023-04-16T04:01:52.209Z,85.91
2023-04-16T04:04:56.043Z,85.10
2023-04-16T04:08:00.034Z,84.98
2023-04-16T04:11:07.088Z,84.86
2023-04-16T04:14:12.220Z,85.28
2023-04-16T04:17:15.798Z,85.60
2023-04-16T04:20:19.425Z,86.06
2023-04-16T04:23:24.093Z,86.49
2023-04-16T04:26:29.130Z,85.99
2023-04-16T04:29:33.438Z,86.23
2023-04-16T04:32:37.189Z,86.82
2023-04-16T04:35:40.529Z,86.67
2023-04-16T04:38:45.709Z,86.66
2023-04-16T04:41:50.824Z,86.54
2023-04-16T04:44:55.736Z,86.41
2023-04-16T04:48:00.637Z,87.13
2023-04-16T04:51:05.490Z,86.88
2023-04-16T04:54:09.891Z,86.70
2023-04-16T04:57:14.805Z,85.98
2023-04-16T05:00:18.384Z,85.52
2023-04-16T05:03:29.034Z,85.67
2023-04-16T05:06:32.854Z,84.44
2023-04-16T05:09:36.560Z,83.94
2023-04-16T05:12:41.643Z,84.00
2023-04-16T05:15:45.873Z,84.09
2023-04-16T05:18:49.198Z,84.79
2023-04-16T05:21:52.713Z,85.24
2023-04-16T05:24:56.542Z,84.96
2023-04-16T05:28:01.556Z,85.68
2023-04-16T05:31:05.247Z,85.56
2023-04-16T05:34:08.936Z,84.91
2023-04-16T05:37:12.408Z,84.72
2023-04-16T05:40:16.071Z,83.94
2023-04-16T05:43:20.980Z,85.11
2023-04-16T05:46:24.663Z,84.25
2023-04-16T05:49:27.994Z,84.26
2023-04-16T05:52:31.592Z,84.54
2023-04-16T05:55:36.125Z,83.82
2023-04-16T05:58:41.183Z,84.34
2023-04-16T06:01:47.880Z,83.59
2023-04-16T06:04:51.665Z,83.53
2023-04-16T06:07:56.101Z,84.53
2023-04-16T06:10:59.641Z,84.44
2023-04-16T06:14:04.913Z,85.45
2023-04-16T06:17:08.403Z,86.51
2023-04-16T06:20:13.646Z,86.62
2023-04-16T06:23:17.102Z,86.26
2023-04-16T06:26:21.047Z,85.81
2023-04-16T06:29:33.700Z,85.29
2023-04-16T06:32:44.681Z,84.52
2023-04-16T06:35:48.540Z,84.67
2023-04-16T06:38:51.934Z,83.68
2023-04-16T06:41:56.106Z,83.82
2023-04-16T06:45:01.186Z,82.70
2023-04-16T06:48:05.258Z,82.73
2023-04-16T06:51:09.338Z,82.63
2023-04-16T06:54:13.056Z,84.03
2023-04-16T06:57:16.564Z,82.93
2023-04-16T07:00:21.949Z,82.57
2023-04-16T07:03:25.726Z,83.05
2023-04-16T07:06:29.437Z,82.21
2023-04-16T07:09:32.950Z,82.13
2023-04-16T07:12:36.444Z,81.57
2023-04-16T07:15:41.449Z,81.68
2023-04-16T07:18:44.937Z,82.39
2023-04-16T07:21:48.422Z,82.56
2023-04-16T07:24:52.158Z,81.99
2023-04-16T07:27:55.597Z,81.66
2023-04-16T07:31:00.714Z,80.66
2023-04-16T07:34:04.807Z,81.67
2023-04-16T07:37:08.524Z,80.94
2023-04-16T07:40:12.807Z,81.37
2023-04-16T07:43:16.793Z,80.98
2023-04-16T07:46:22.103Z,81.23
2023-04-16T07:49:25.714Z,81.05
2023-04-16T07:52:29.197Z,81.65
2023-04-16T07:55:33.133Z,81.63
2023-04-16T07:58:36.748Z,82.04
2023-04-16T08:01:41.596Z,82.44
2023-04-16T08:04:45.640Z,81.77
2023-04-16T08:07:49.272Z,82.04
2023-04-16T08:10:55.897Z,81.29
2023-04-16T08:13:59.574Z,81.19
2023-04-16T08:17:04.547Z,80.66
2023-04-16T08:20:09.584Z,80.25
2023-04-16T08:23:14.064Z,80.13
2023-04-16T08:26:17.810Z,80.10
2023-04-16T08:29:21.600Z,79.45
2023-04-16T08:32:28.372Z,78.31
2023-04-16T08:35:31.800Z,77.28
2023-04-16T08:38:35.290Z,76.20
2023-04-16T08:41:42.542Z,76.30
2023-04-16T08:44:50.542Z,75.96
2023-04-16T08:47:57.808Z,75.22
2023-04-16T08:51:02.439Z,74.61
2023-04-16T08:54:09.878Z,76.67
2023-04-16T08:57:18.639Z,75.72
2023-04-16T09:00:22.637Z,75.22
2023-04-16T09:03:29.950Z,74.81
2023-04-16T09:06:35.282Z,75.65
2023-04-16T09:09:40.038Z,74.72
2023-04-16T09:12:44.046Z,74.61
2023-04-16T09:15:52.210Z,74.25
2023-04-16T09:18:57.150Z,73.81
2023-04-16T09:22:00.569Z,71.31
2023-04-16T09:25:04.562Z,71.57
2023-04-16T09:28:07.947Z,70.75
2023-04-16T09:31:12.847Z,71.06
2023-04-16T09:34:17.809Z,71.00
2023-04-16T09:37:21.626Z,69.63
2023-04-16T09:40:30.603Z,69.12
2023-04-16T09:43:34.232Z,72.07
2023-04-16T09:46:41.892Z,70.68
2023-04-16T09:49:47.113Z,69.93
2023-04-16T09:52:52.634Z,70.13
2023-04-16T09:55:59.134Z,69.51
2023-04-16T09:59:02.521Z,69.18
2023-04-16T10:02:14.876Z,66.79
2023-04-16T10:05:21.640Z,66.20
2023-04-16T10:08:25.752Z,66.95
2023-04-16T10:11:29.630Z,67.47
2023-04-16T10:14:33.969Z,67.80
2023-04-16T10:17:38.606Z,68.02
2023-04-16T10:20:44.143Z,66.28
2023-04-16T10:23:49.768Z,66.68
2023-04-16T10:26:53.743Z,65.44
2023-04-16T10:29:57.820Z,67.76
2023-04-16T10:33:03.358Z,66.82
2023-04-16T10:36:12.985Z,63.99
2023-04-16T10:39:20.292Z,63.22
2023-04-16T10:42:23.704Z,63.04
2023-04-16T10:45:32.446Z,64.87
2023-04-16T10:48:46.730Z,63.00
2023-04-16T10:51:59.634Z,60.58
2023-04-16T10:55:03.034Z,62.82
2023-04-16T10:58:28.552Z,60.80
2023-04-16T11:01:34.122Z,62.48
2023-04-16T11:04:39.310Z,59.85
2023-04-16T11:07:49.941Z,57.14
2023-04-16T11:10:53.949Z,57.74
2023-04-16T11:13:58.180Z,55.69
2023-04-16T11:17:05.111Z,55.02
2023-04-16T11:20:13.602Z,56.49
2023-04-16T11:23:25.059Z,54.57
2023-04-16T11:26:32.493Z,55.01
2023-04-16T11:29:36.125Z,54.27
2023-04-16T11:32:40.984Z,55.50
2023-04-16T11:35:46.122Z,54.72
2023-04-16T11:39:05.922Z,55.34
2023-04-16T11:42:12.195Z,55.62
2023-04-16T11:45:15.608Z,55.30
2023-04-16T11:48:22.173Z,56.68
2023-04-16T11:51:25.899Z,55.25
2023-04-16T11:54:34.993Z,54.39
2023-04-16T11:57:41.381Z,55.18
2023-04-16T12:00:45.464Z,56.69
2023-04-16T12:03:51.929Z,54.23
2023-04-16T12:07:09.440Z,51.86
2023-04-16T12:10:14.746Z,49.81
2023-04-16T12:13:19.783Z,52.85
2023-04-16T12:16:23.366Z,52.16
2023-04-16T12:19:27.023Z,49.50
2023-04-16T12:22:32.422Z,52.39
2023-04-16T12:25:43.821Z,50.25
2023-04-16T12:28:47.639Z,50.20
2023-04-16T12:31:53.737Z,50.25
2023-04-16T12:34:58.255Z,50.54
2023-04-16T12:38:06.039Z,48.09
2023-04-16T12:41:13.448Z,47.31
2023-04-16T12:44:21.888Z,46.22
2023-04-16T12:47:27.030Z,43.49
2023-04-16T12:50:33.414Z,44.74
2023-04-16T12:53:41.043Z,45.57
2023-04-16T12:56:46.041Z,43.79
2023-04-16T12:59:51.134Z,42.13
2023-04-16T13:02:59.821Z,41.63
2023-04-16T13:06:06.545Z,46.58
2023-04-16T13:09:10.758Z,47.54
2023-04-16T13:12:18.802Z,51.29
2023-04-16T13:15:22.174Z,39.87
2023-04-16T13:18:26.957Z,47.25
2023-04-16T13:21:33.292Z,42.05
2023-04-16T13:24:38.623Z,41.55
2023-04-16T13:27:46.054Z,41.29
2023-04-16T13:30:49.734Z,43.35
2023-04-16T13:33:54.727Z,44.55
2023-04-16T13:36:58.181Z,42.40
2023-04-16T13:40:01.972Z,38.10
2023-04-16T13:43:07.849Z,41.80
2023-04-16T13:46:12.583Z,40.88
2023-04-16T13:49:16.399Z,44.36
2023-04-16T13:52:23.276Z,44.26
2023-04-16T13:55:26.965Z,44.91
2023-04-16T13:58:32.510Z,41.64
2023-04-16T14:01:36.180Z,42.91
2023-04-16T14:04:39.769Z,42.22
2023-04-16T14:07:43.575Z,41.20
2023-04-16T14:10:47.360Z,39.61
2023-04-16T14:13:52.419Z,38.42
2023-04-16T14:16:56.216Z,41.27
2023-04-16T14:19:59.854Z,43.71
2023-04-16T14:23:04.054Z,41.33
2023-04-16T14:26:09.751Z,43.05
2023-04-16T14:29:16.236Z,44.94
2023-04-16T14:32:22.953Z,43.97
2023-04-16T14:35:26.864Z,45.84
2023-04-16T14:38:32.149Z,44.52
2023-04-16T14:41:35.806Z,45.33
2023-04-16T14:44:40.773Z,46.26
2023-04-16T14:47:47.768Z,47.47
2023-04-16T14:50:51.618Z,46.65
2023-04-16T14:53:55.370Z,48.42
2023-04-16T14:56:58.847Z,49.66
2023-04-16T15:00:07.703Z,50.46
2023-04-16T15:03:13.828Z,47.94
2023-04-16T15:06:22.401Z,46.28
2023-04-16T15:09:26.947Z,47.03
2023-04-16T15:12:30.547Z,47.05
2023-04-16T15:15:36.039Z,46.22
2023-04-16T15:18:43.967Z,47.14
2023-04-16T15:21:48.830Z,48.25
2023-04-16T15:24:54.202Z,49.22
2023-04-16T15:27:57.753Z,50.22
2023-04-16T15:31:02.904Z,48.90
2023-04-16T15:34:06.857Z,50.15
2023-04-16T15:37:10.613Z,50.91
2023-04-16T15:40:16.092Z,50.42
2023-04-16T15:43:19.771Z,50.62
2023-04-16T15:46:24.877Z,51.45
2023-04-16T15:49:33.586Z,50.09
2023-04-16T15:52:38.737Z,50.20
2023-04-16T15:55:43.936Z,50.95
2023-04-16T15:58:55.216Z,51.78
2023-04-16T16:02:01.796Z,52.07
2023-04-16T16:05:06.714Z,50.23
2023-04-16T16:08:10.556Z,50.91
2023-04-16T16:11:14.152Z,52.95
2023-04-16T16:14:18.710Z,53.02
2023-04-16T16:17:23.769Z,53.64
2023-04-16T16:20:27.663Z,54.73
2023-04-16T16:23:31.691Z,55.29
2023-04-16T16:26:35.215Z,55.68
2023-04-16T16:29:38.787Z,56.74
2023-04-16T16:32:44.538Z,57.68
2023-04-16T16:35:47.999Z,58.71
2023-04-16T16:38:51.435Z,58.25
2023-04-16T16:41:55.148Z,59.07
2023-04-16T16:44:58.602Z,60.20
2023-04-16T16:48:04.744Z,61.43
2023-04-16T16:51:11.222Z,61.91
2023-04-16T16:54:18.221Z,61.38
2023-04-16T16:57:21.936Z,62.49
2023-04-16T17:00:25.760Z,63.48
2023-04-16T17:03:31.167Z,63.80
2023-04-16T17:06:35.092Z,64.41
2023-04-16T17:09:38.957Z,62.93
2023-04-16T17:12:42.395Z,63.51
2023-04-16T17:15:47.308Z,63.86
2023-04-16T17:18:52.651Z,64.75
2023-04-16T17:21:56.581Z,65.52
2023-04-16T17:25:00.129Z,66.19
2023-04-16T17:28:04.262Z,66.40
2023-04-16T17:31:11.500Z,66.55
2023-04-16T17:34:19.932Z,67.09
2023-04-16T17:37:28.887Z,67.86
2023-04-16T17:40:32.429Z,67.43
2023-04-16T17:43:36.153Z,67.40
2023-04-16T17:46:39.804Z,66.85
2023-04-16T17:49:46.459Z,65.88
2023-04-16T17:52:49.999Z,65.08
2023-04-16T17:55:56.534Z,66.12
2023-04-16T17:59:01.639Z,66.35
2023-04-16T18:02:05.258Z,66.44
2023-04-16T18:05:11.786Z,66.24
2023-04-16T18:08:15.463Z,67.32
2023-04-16T18:11:18.926Z,67.10
2023-04-16T18:14:24.940Z,67.70
2023-04-16T18:17:29.814Z,66.37
2023-04-16T18:20:34.756Z,65.52
2023-04-16T18:23:40.190Z,65.02
2023-04-16T18:26:46.656Z,64.89
2023-04-16T18:29:51.403Z,64.87
2023-04-16T18:33:25.135Z,64.99
2023-04-16T18:36:20.015Z,64.75
2023-04-16T18:39:25.890Z,64.49
2023-04-16T18:42:29.490Z,64.84
2023-04-16T18:45:34.373Z,64.92
2023-04-16T18:48:37.973Z,64.16
2023-04-16T18:51:43.203Z,64.96
2023-04-16T18:54:47.191Z,64.88
2023-04-16T18:57:55.348Z,64.60
2023-04-16T19:01:02.033Z,64.56
2023-04-16T19:04:06.256Z,64.31
2023-04-16T19:07:11.629Z,64.32
2023-04-16T19:10:19.284Z,64.18
2023-04-16T19:13:24.429Z,64.35
2023-04-16T19:16:27.867Z,63.95
2023-04-16T19:19:31.242Z,64.40
2023-04-16T19:22:36.262Z,64.11
2023-04-16T19:25:41.006Z,64.84
2023-04-16T19:28:46.606Z,64.48
2023-04-16T19:31:50.023Z,65.70
2023-04-16T19:34:53.833Z,64.95
2023-04-16T19:37:58.861Z,64.55
2023-04-16T19:41:02.332Z,65.73
2023-04-16T19:44:07.102Z,65.61
2023-04-16T19:47:10.783Z,66.03
2023-04-16T19:50:17.442Z,66.14
2023-04-16T19:53:22.413Z,66.21
2023-04-16T19:56:26.459Z,66.24
2023-04-16T19:59:30.301Z,66.91
2023-04-16T20:02:33.730Z,67.00
2023-04-16T20:05:37.694Z,67.34
2023-04-16T20:08:42.664Z,67.60
2023-04-16T20:11:46.338Z,67.76
2023-04-16T20:14:53.200Z,68.32
2023-04-16T20:17:59.215Z,68.40
2023-04-16T20:21:05.595Z,68.82
2023-04-16T20:24:11.445Z,68.83
2023-04-16T20:27:15.635Z,69.14
2023-04-16T20:30:19.179Z,68.94
2023-04-16T20:33:24.432Z,69.78
2023-04-16T20:36:28.612Z,69.46
2023-04-16T20:39:34.707Z,69.92
2023-04-16T20:42:38.123Z,70.84
2023-04-16T20:45:42.010Z,71.65
2023-04-16T20:48:45.859Z,70.75
2023-04-16T20:51:49.348Z,70.69
2023-04-16T20:54:55.677Z,69.34
2023-04-16T20:58:02.070Z,69.65
2023-04-16T21:01:07.241Z,71.33
2023-04-16T21:04:11.051Z,71.64
2023-04-16T21:07:14.865Z,72.04
2023-04-16T21:10:20.499Z,72.14
2023-04-16T21:13:31.526Z,72.47
2023-04-16T21:16:35.084Z,73.98
2023-04-16T21:19:40.338Z,73.92
2023-04-16T21:22:52.409Z,73.90
2023-04-16T21:25:58.249Z,73.46
2023-04-16T21:29:01.841Z,73.33
2023-04-16T21:32:05.992Z,73.72
2023-04-16T21:35:11.670Z,74.11
2023-04-16T21:38:15.152Z,73.91
2023-04-16T21:41:20.472Z,74.01
2023-04-16T21:44:24.065Z,74.10
2023-04-16T21:47:27.747Z,72.42
2023-04-16T21:50:31.540Z,72.48
2023-04-16T21:53:35.733Z,72.56
2023-04-16T21:56:40.960Z,73.93
2023-04-16T21:59:44.645Z,74.10
2023-04-16T22:02:50.457Z,74.73
2023-04-16T22:06:01.057Z,74.75
2023-04-16T22:09:05.189Z,74.42
2023-04-16T22:12:13.065Z,73.76
2023-04-16T22:15:18.575Z,74.03
2023-04-16T22:18:24.433Z,73.90
2023-04-16T22:21:28.071Z,74.25
2023-04-16T22:24:31.959Z,73.66
2023-04-16T22:27:39.237Z,74.75
2023-04-16T22:30:42.723Z,75.29
2023-04-16T22:33:46.140Z,75.73
2023-04-16T22:36:50.038Z,76.01
2023-04-16T22:39:56.605Z,76.34
2023-04-16T22:43:04.597Z,76.51
2023-04-16T22:46:09.532Z,76.60
2023-04-16T22:49:13.264Z,76.46
2023-04-16T22:52:16.950Z,76.89
2023-04-16T22:55:20.962Z,77.03
2023-04-16T22:58:27.016Z,77.18
2023-04-16T23:01:30.965Z,77.71
2023-04-16T23:04:41.892Z,77.68
2023-04-16T23:07:49.316Z,77.03
2023-04-16T23:10:53.194Z,77.74
2023-04-16T23:13:58.932Z,77.23
2023-04-16T23:17:05.995Z,76.26
2023-04-16T23:20:10.809Z,76.06
2023-04-16T23:23:14.202Z,76.14
2023-04-16T23:26:18.707Z,76.98
2023-04-16T23:29:24.152Z,78.48
2023-04-16T23:32:27.739Z,78.87
2023-04-16T23:35:31.722Z,78.36
2023-04-16T23:38:35.664Z,78.64
2023-04-16T23:41:39.156Z,79.03
2023-04-16T23:44:44.173Z,78.41
2023-04-16T23:47:48.603Z,80.53
2023-04-16T23:50:52.204Z,80.87
2023-04-16T23:53:55.683Z,80.14
2023-04-16T23:56:59.205Z,80.22
